createdAt,value
2022-12-19T00:00:25.111Z,58.82
2022-12-19T00:02:56.508Z,59.29
2022-12-19T00:05:23.592Z,59.56
2022-12-19T00:07:59.687Z,59.97
2022-12-19T00:10:32.190Z,59.72
2022-12-19T00:12:59.362Z,59.51
2022-12-19T00:15:31.030Z,59.27
2022-12-19T00:18:02.286Z,59.57
2022-12-19T00:20:29.157Z,59.68
2022-12-19T00:22:56.191Z,59.85
2022-12-19T00:25:22.855Z,60.45
2022-12-19T00:27:52.514Z,60.44
2022-12-19T00:30:19.374Z,60.84
2022-12-19T00:32:47.758Z,60.10
2022-12-19T00:35:17.416Z,59.89
2022-12-19T00:37:49.584Z,59.30
2022-12-19T00:40:31.308Z,59.91
2022-12-19T00:42:59.826Z,59.07
2022-12-19T00:45:28.092Z,59.09
2022-12-19T00:47:57.067Z,58.48
2022-12-19T00:50:25.821Z,59.99
2022-12-19T00:52:53.151Z,59.78
2022-12-19T00:55:20.218Z,59.95
2022-12-19T00:57:50.066Z,60.50
2022-12-19T01:00:25.602Z,60.83
2022-12-19T01:02:59.830Z,60.46
2022-12-19T01:05:34.152Z,60.07
2022-12-19T01:08:05.477Z,59.81
2022-12-19T01:10:52.099Z,60.25
2022-12-19T01:13:23.776Z,59.06
2022-12-19T01:15:52.626Z,59.17
2022-12-19T01:18:19.297Z,59.12
2022-12-19T01:20:48.327Z,59.15
2022-12-19T01:23:17.931Z,59.55
2022-12-19T01:25:54.439Z,59.88
2022-12-19T01:28:23.149Z,60.56
2022-12-19T01:30:50.433Z,60.14
2022-12-19T01:33:18.878Z,59.42
2022-12-19T01:35:49.083Z,59.17
2022-12-19T01:38:19.553Z,59.46
2022-12-19T01:40:51.803Z,59.60
2022-12-19T01:43:58.382Z,58.85
2022-12-19T01:46:46.638Z,59.44
2022-12-19T01:49:36.343Z,59.75
2022-12-19T01:52:20.761Z,59.04
2022-12-19T01:54:51.106Z,59.58
2022-12-19T01:57:20.349Z,60.36
2022-12-19T01:59:54.555Z,60.13
2022-12-19T02:02:39.953Z,59.21
2022-12-19T02:05:19.399Z,59.26
2022-12-19T02:07:53.185Z,59.32
2022-12-19T02:10:22.097Z,59.23
2022-12-19T02:12:50.010Z,59.40
2022-12-19T02:15:18.231Z,60.19
2022-12-19T02:18:00.227Z,60.00
2022-12-19T02:20:37.922Z,61.31
2022-12-19T02:23:26.588Z,59.91
2022-12-19T02:26:24.612Z,59.21
2022-12-19T02:29:21.212Z,60.32
2022-12-19T02:32:32.239Z,59.74
2022-12-19T02:35:25.313Z,59.18
2022-12-19T02:38:19.791Z,58.89
2022-12-19T02:41:09.927Z,58.99
2022-12-19T02:43:49.096Z,59.17
2022-12-19T02:46:28.801Z,58.29
2022-12-19T02:49:01.558Z,59.37
2022-12-19T02:52:01.905Z,58.75
2022-12-19T02:54:29.231Z,58.57
2022-12-19T02:57:13.822Z,58.62
2022-12-19T02:59:54.136Z,59.28
2022-12-19T03:03:00.658Z,60.13
2022-12-19T03:06:23.209Z,60.25
2022-12-19T03:09:14.000Z,60.32
2022-12-19T03:11:45.520Z,59.74
2022-12-19T03:14:21.320Z,59.71
2022-12-19T03:16:49.766Z,58.65
2022-12-19T03:19:19.723Z,59.05
2022-12-19T03:21:49.156Z,59.01
2022-12-19T03:24:19.873Z,58.69
2022-12-19T03:26:57.089Z,59.02
2022-12-19T03:29:32.728Z,58.66
2022-12-19T03:32:09.642Z,58.59
2022-12-19T03:34:49.045Z,59.14
2022-12-19T03:37:22.492Z,58.95
2022-12-19T03:44:23.904Z,58.72
2022-12-19T03:47:33.806Z,59.34
2022-12-19T03:50:03.831Z,59.26
2022-12-19T03:52:59.895Z,59.20
2022-12-19T03:55:51.775Z,59.44
2022-12-19T03:58:42.179Z,58.49
2022-12-19T04:01:13.085Z,59.20
2022-12-19T04:03:43.141Z,58.37
2022-12-19T04:06:36.811Z,58.93
2022-12-19T04:09:06.676Z,59.14
2022-12-19T04:11:49.190Z,58.47
2022-12-19T04:14:32.222Z,59.47
2022-12-19T04:17:23.644Z,59.27
2022-12-19T04:19:53.442Z,58.96
2022-12-19T04:22:42.015Z,60.37
2022-12-19T04:25:19.094Z,59.68
2022-12-19T04:27:52.198Z,59.97
2022-12-19T04:30:29.970Z,58.98
2022-12-19T04:33:09.502Z,59.09
2022-12-19T04:35:40.979Z,58.27
2022-12-19T04:38:08.538Z,58.35
2022-12-19T04:40:42.342Z,58.97
2022-12-19T04:43:09.807Z,58.93
2022-12-19T04:45:42.034Z,59.17
2022-12-19T04:48:31.713Z,58.57
2022-12-19T04:50:58.797Z,58.88
2022-12-19T04:53:30.635Z,59.19
2022-12-19T04:56:02.362Z,59.19
2022-12-19T04:58:32.581Z,59.82
2022-12-19T05:01:07.200Z,59.86
2022-12-19T05:03:35.717Z,59.58
2022-12-19T05:06:39.825Z,60.08
2022-12-19T05:09:10.583Z,59.85
2022-12-19T05:11:41.109Z,60.54
2022-12-19T05:14:21.919Z,59.58
2022-12-19T05:16:49.118Z,59.41
2022-12-19T05:19:18.912Z,59.30
2022-12-19T05:21:49.107Z,60.58
2022-12-19T05:24:17.860Z,59.31
2022-12-19T05:26:49.338Z,58.96
2022-12-19T05:29:20.180Z,58.92
2022-12-19T05:31:52.322Z,63.60
2022-12-19T05:34:36.845Z,61.59
2022-12-19T05:37:29.794Z,61.42
2022-12-19T05:40:01.367Z,60.46
2022-12-19T05:42:43.033Z,61.78
2022-12-19T05:47:59.961Z,58.64
2022-12-19T05:59:15.204Z,58.38
2022-12-19T06:01:57.160Z,59.33
2022-12-19T06:04:46.506Z,59.58
2022-12-19T06:07:20.716Z,59.85
2022-12-19T06:09:54.751Z,59.40
2022-12-19T06:12:39.444Z,59.47
2022-12-19T06:23:02.211Z,60.23
2022-12-19T06:25:56.516Z,59.31
2022-12-19T06:28:30.565Z,58.76
2022-12-19T06:31:46.852Z,58.90
2022-12-19T06:34:55.143Z,58.58
2022-12-19T06:37:10.941Z,58.74
2022-12-19T06:39:45.432Z,59.20
2022-12-19T06:42:30.969Z,60.07
2022-12-19T06:45:05.032Z,61.73
2022-12-19T06:50:48.695Z,60.90
2022-12-19T06:53:28.199Z,61.22
2022-12-19T06:56:04.696Z,61.07
2022-12-19T06:58:36.504Z,62.96
2022-12-19T07:02:00.196Z,62.21
2022-12-19T07:05:06.533Z,60.00
2022-12-19T07:07:40.338Z,60.80
2022-12-19T07:10:09.115Z,60.19
2022-12-19T07:12:51.499Z,60.53
2022-12-19T07:15:22.391Z,61.10
2022-12-19T07:17:49.335Z,60.24
2022-12-19T07:23:50.574Z,59.64
2022-12-19T07:27:35.824Z,59.45
2022-12-19T07:30:11.083Z,58.62
2022-12-19T07:36:40.931Z,58.69
2022-12-19T07:39:19.639Z,59.33
2022-12-19T07:41:51.984Z,60.50
2022-12-19T07:47:18.989Z,59.16
2022-12-19T07:50:31.370Z,59.05
2022-12-19T07:53:10.925Z,58.17
2022-12-19T07:58:21.236Z,57.43
2022-12-19T08:00:56.689Z,57.20
2022-12-19T08:03:29.807Z,57.61
2022-12-19T08:09:14.327Z,57.49
2022-12-19T08:11:54.934Z,59.38
2022-12-19T08:14:31.127Z,59.66
2022-12-19T08:17:25.785Z,58.15
2022-12-19T08:19:59.869Z,57.75
2022-12-19T08:22:53.161Z,57.50
2022-12-19T08:25:50.404Z,57.62
2022-12-19T08:28:45.373Z,59.27
2022-12-19T08:31:40.367Z,58.12
2022-12-19T08:34:19.035Z,58.09
2022-12-19T08:36:50.379Z,58.46
2022-12-19T08:39:21.226Z,59.17
2022-12-19T08:42:30.011Z,59.88
2022-12-19T08:45:05.076Z,60.82
2022-12-19T08:47:55.337Z,60.67
2022-12-19T08:50:42.769Z,62.24
2022-12-19T08:53:19.000Z,63.05
2022-12-19T08:57:11.514Z,63.84
2022-12-19T09:00:24.283Z,63.69
2022-12-19T09:03:49.028Z,63.04
2022-12-19T09:07:15.731Z,60.94
2022-12-19T09:10:20.475Z,59.99
2022-12-19T09:13:16.037Z,61.63
2022-12-19T09:16:55.651Z,62.77
2022-12-19T09:20:24.202Z,62.96
2022-12-19T09:24:07.495Z,63.49
2022-12-19T09:31:44.366Z,58.48
2022-12-19T09:34:38.419Z,59.23
2022-12-19T09:38:11.380Z,58.10
2022-12-19T09:44:41.267Z,59.42
2022-12-19T09:47:23.511Z,57.69
2022-12-19T09:50:44.308Z,58.54
2022-12-19T09:54:14.869Z,58.26
2022-12-19T09:58:01.119Z,59.29
2022-12-19T10:00:43.732Z,57.94
2022-12-19T10:03:52.256Z,57.50
2022-12-19T10:07:22.356Z,56.53
2022-12-19T10:13:00.109Z,58.35
2022-12-19T10:16:00.262Z,59.39
2022-12-19T10:22:42.785Z,60.94
2022-12-19T10:28:35.335Z,59.24
2022-12-19T10:31:22.193Z,60.43
2022-12-19T10:34:31.890Z,58.20
2022-12-19T10:37:31.447Z,58.77
2022-12-19T10:40:52.745Z,59.02
2022-12-19T10:43:55.196Z,58.18
2022-12-19T10:46:50.220Z,57.51
2022-12-19T10:49:35.963Z,59.47
2022-12-19T10:52:13.302Z,61.76
2022-12-19T10:55:10.522Z,61.23
2022-12-19T10:57:59.375Z,60.69
2022-12-19T11:04:55.610Z,60.74
2022-12-19T11:07:23.160Z,59.04
2022-12-19T11:10:35.723Z,58.67
2022-12-19T11:18:21.322Z,58.59
2022-12-19T11:21:26.892Z,59.03
2022-12-19T11:29:37.054Z,59.23
2022-12-19T11:29:38.938Z,61.08
2022-12-19T11:31:52.841Z,60.03
2022-12-19T11:32:41.045Z,58.63
2022-12-19T11:35:37.577Z,58.87
2022-12-19T11:38:11.120Z,58.42
2022-12-19T11:44:25.315Z,55.73
2022-12-19T11:50:52.165Z,52.68
2022-12-19T11:53:59.599Z,53.65
2022-12-19T11:56:39.672Z,51.45
2022-12-19T11:59:34.481Z,51.72
2022-12-19T12:02:36.597Z,50.31
2022-12-19T12:05:15.974Z,52.42
2022-12-19T12:09:36.083Z,53.38
2022-12-19T12:18:32.470Z,52.51
2022-12-19T12:24:25.031Z,53.46
2022-12-19T12:31:20.323Z,53.70
2022-12-19T12:31:29.754Z,53.05
2022-12-19T12:31:40.920Z,55.62
2022-12-19T12:32:00.573Z,57.25
2022-12-19T12:35:34.974Z,56.35
2022-12-19T12:40:55.431Z,56.10
2022-12-19T12:43:44.669Z,55.84
2022-12-19T12:46:24.906Z,54.66
2022-12-19T12:49:05.737Z,55.80
2022-12-19T12:52:52.282Z,55.96
2022-12-19T12:55:51.533Z,55.26
2022-12-19T12:58:59.517Z,55.60
2022-12-19T13:01:40.095Z,56.55
2022-12-19T13:04:31.974Z,55.73
2022-12-19T13:07:22.005Z,56.59
2022-12-19T13:09:58.869Z,55.15
2022-12-19T13:12:50.757Z,58.05
2022-12-19T13:15:32.687Z,57.50
2022-12-19T13:18:24.688Z,57.15
2022-12-19T13:20:55.786Z,56.40
2022-12-19T13:23:38.033Z,56.64
2022-12-19T13:26:43.578Z,55.75
2022-12-19T13:29:52.104Z,55.49
2022-12-19T13:32:33.102Z,55.17
2022-12-19T13:35:07.005Z,54.32
2022-12-19T13:39:56.901Z,55.11
2022-12-19T13:41:58.385Z,54.97
2022-12-19T13:44:31.095Z,54.95
2022-12-19T13:46:59.760Z,55.20
2022-12-19T13:49:35.386Z,58.26
2022-12-19T13:52:04.192Z,58.08
2022-12-19T13:54:47.326Z,60.47
2022-12-19T13:57:31.866Z,59.98
2022-12-19T14:00:10.057Z,59.78
2022-12-19T14:02:49.986Z,60.07
2022-12-19T14:06:14.929Z,61.28
2022-12-19T14:08:25.673Z,59.03
2022-12-19T14:11:33.693Z,58.50
2022-12-19T14:14:20.569Z,59.27
2022-12-19T14:17:07.095Z,58.08
2022-12-19T14:19:41.456Z,57.65
2022-12-19T14:22:35.548Z,58.31
2022-12-19T14:25:10.160Z,58.18
2022-12-19T14:28:21.196Z,60.00
2022-12-19T14:31:00.474Z,60.19
2022-12-19T14:34:11.647Z,59.66
2022-12-19T14:37:00.335Z,59.37
2022-12-19T14:39:35.852Z,58.76
2022-12-19T14:43:48.076Z,58.08
2022-12-19T14:54:00.204Z,59.07
2022-12-19T14:54:28.662Z,63.88
2022-12-19T14:56:17.806Z,62.83
2022-12-19T14:58:53.971Z,63.44
2022-12-19T15:02:13.248Z,64.15
2022-12-19T15:05:31.684Z,64.74
2022-12-19T15:08:14.189Z,65.06
2022-12-19T15:11:05.455Z,64.48
2022-12-19T15:16:28.877Z,63.84
2022-12-19T15:18:14.053Z,62.37
2022-12-19T15:21:16.096Z,62.73
2022-12-19T15:24:43.381Z,62.72
2022-12-19T15:32:00.390Z,62.94
2022-12-19T15:35:05.939Z,62.72
2022-12-19T15:37:45.870Z,63.26
2022-12-19T15:40:21.467Z,64.43
2022-12-19T15:42:58.796Z,63.78
2022-12-19T15:45:30.882Z,62.95
2022-12-19T15:47:57.883Z,62.82
2022-12-19T15:50:33.099Z,62.78
2022-12-19T15:53:40.200Z,61.34
2022-12-19T15:56:28.914Z,61.43
2022-12-19T15:59:05.288Z,59.82
2022-12-19T16:01:42.833Z,58.58
2022-12-19T16:05:05.142Z,58.72
2022-12-19T16:07:55.296Z,59.70
2022-12-19T16:22:58.343Z,61.50
2022-12-19T16:26:05.038Z,62.98
2022-12-19T16:28:41.530Z,64.13
2022-12-19T16:31:16.622Z,63.93
2022-12-19T16:33:43.356Z,63.99
2022-12-19T16:36:45.780Z,63.26
2022-12-19T16:39:16.940Z,61.09
2022-12-19T16:42:01.368Z,60.96
2022-12-19T16:44:35.927Z,61.58
2022-12-19T16:47:02.845Z,62.07
2022-12-19T16:49:30.766Z,61.06
2022-12-19T16:51:57.560Z,61.58
2022-12-19T16:54:24.192Z,63.10
2022-12-19T16:56:52.939Z,62.95
2022-12-19T16:59:29.053Z,62.32
2022-12-19T17:01:56.599Z,63.24
2022-12-19T17:04:25.656Z,62.32
2022-12-19T17:06:53.791Z,62.42
2022-12-19T17:09:31.505Z,61.67
2022-12-19T17:12:02.108Z,61.15
2022-12-19T17:14:39.113Z,60.61
2022-12-19T17:17:17.174Z,62.20
2022-12-19T17:19:51.054Z,61.81
2022-12-19T17:22:30.954Z,62.92
2022-12-19T17:25:30.719Z,63.42
2022-12-19T17:28:06.817Z,63.52
2022-12-19T17:31:04.959Z,63.36
2022-12-19T17:33:58.627Z,63.52
2022-12-19T17:36:38.815Z,64.57
2022-12-19T17:39:25.054Z,64.55
2022-12-19T17:41:58.372Z,63.58
2022-12-19T17:44:28.814Z,64.17
2022-12-19T17:48:18.438Z,64.08
2022-12-19T17:54:45.468Z,62.53
2022-12-19T17:57:19.713Z,61.47
2022-12-19T17:59:52.586Z,60.03
2022-12-19T18:03:37.264Z,58.40
2022-12-19T18:11:13.976Z,60.10
2022-12-19T18:13:57.474Z,59.02
2022-12-19T18:16:39.949Z,58.42
2022-12-19T18:19:08.635Z,59.81
2022-12-19T18:21:38.340Z,60.57
2022-12-19T18:24:29.444Z,59.37
2022-12-19T18:27:25.899Z,59.15
2022-12-19T18:35:16.461Z,62.48
2022-12-19T18:37:48.931Z,60.24
2022-12-19T18:41:11.279Z,61.99
2022-12-19T18:47:24.082Z,62.35
2022-12-19T18:50:30.793Z,60.98
2022-12-19T18:53:48.142Z,62.28
2022-12-19T18:56:48.176Z,62.28
2022-12-19T18:59:31.423Z,62.02
2022-12-19T19:02:04.104Z,60.43
2022-12-19T19:07:25.418Z,59.92
2022-12-19T19:09:55.237Z,59.52
2022-12-19T19:21:05.523Z,58.93
2022-12-19T19:24:05.071Z,61.73
2022-12-19T19:26:43.892Z,61.74
2022-12-19T19:29:13.599Z,60.03
2022-12-19T19:31:44.712Z,61.25
2022-12-19T19:34:55.705Z,59.34
2022-12-19T19:38:28.167Z,59.46
2022-12-19T19:41:54.923Z,58.63
2022-12-19T19:44:31.085Z,57.95
2022-12-19T19:47:03.462Z,57.96
2022-12-19T19:49:41.971Z,58.64
2022-12-19T19:52:18.468Z,58.94
2022-12-19T19:54:48.130Z,59.15
2022-12-19T19:57:14.859Z,59.98
2022-12-19T19:59:42.764Z,61.11
2022-12-19T20:02:11.435Z,62.04
2022-12-19T20:04:41.311Z,61.25
2022-12-19T20:07:08.471Z,63.48
2022-12-19T20:09:36.557Z,64.42
2022-12-19T20:12:03.536Z,63.30
2022-12-19T20:14:30.769Z,62.84
2022-12-19T20:17:02.719Z,62.78
2022-12-19T20:19:32.744Z,62.25
2022-12-19T20:22:01.267Z,63.33
2022-12-19T20:24:32.220Z,62.90
2022-12-19T20:27:05.619Z,63.56
2022-12-19T20:29:36.678Z,62.90
2022-12-19T20:32:08.084Z,63.19
2022-12-19T20:34:43.184Z,62.91
2022-12-19T20:37:15.291Z,62.89
2022-12-19T20:39:44.834Z,61.45
2022-12-19T20:42:14.370Z,60.28
2022-12-19T20:44:47.770Z,62.26
2022-12-19T20:47:17.134Z,60.58
2022-12-19T20:49:44.662Z,60.55
2022-12-19T20:52:11.996Z,60.62
2022-12-19T20:54:39.477Z,60.16
2022-12-19T20:57:24.054Z,60.44
2022-12-19T20:59:53.206Z,59.67
2022-12-19T21:02:23.278Z,60.23
2022-12-19T21:04:51.263Z,59.93
2022-12-19T21:07:24.394Z,61.36
2022-12-19T21:10:05.076Z,60.97
2022-12-19T21:12:47.199Z,60.90
2022-12-19T21:15:15.544Z,60.48
2022-12-19T21:17:44.914Z,60.57
2022-12-19T21:20:14.876Z,59.73
2022-12-19T21:22:41.781Z,61.03
2022-12-19T21:25:11.444Z,62.02
2022-12-19T21:27:38.374Z,62.08
2022-12-19T21:30:06.528Z,61.68
2022-12-19T21:32:36.467Z,61.14
2022-12-19T21:35:03.576Z,62.99
2022-12-19T21:37:31.049Z,62.35
2022-12-19T21:39:58.570Z,62.20
2022-12-19T21:42:25.820Z,60.77
2022-12-19T21:44:54.911Z,60.13
2022-12-19T21:47:21.578Z,60.06
2022-12-19T21:49:49.511Z,59.03
2022-12-19T21:52:16.164Z,59.77
2022-12-19T21:54:45.846Z,58.82
2022-12-19T21:57:15.006Z,58.83
2022-12-19T21:59:45.755Z,58.96
2022-12-19T22:02:14.455Z,59.28
2022-12-19T22:04:41.350Z,59.26
2022-12-19T22:07:11.303Z,59.06
2022-12-19T22:09:46.144Z,59.37
2022-12-19T22:12:16.640Z,58.85
2022-12-19T22:14:44.797Z,58.67
2022-12-19T22:17:11.585Z,59.39
2022-12-19T22:19:39.810Z,59.05
2022-12-19T22:22:07.019Z,59.47
2022-12-19T22:24:34.135Z,60.73
2022-12-19T22:27:05.040Z,60.02
2022-12-19T22:29:36.447Z,59.96
2022-12-19T22:32:04.594Z,60.20
2022-12-19T22:34:31.727Z,59.81
2022-12-19T22:36:58.604Z,60.22
2022-12-19T22:39:28.500Z,59.94
2022-12-19T22:41:59.797Z,59.77
2022-12-19T22:44:26.565Z,59.33
2022-12-19T22:46:56.415Z,59.44
2022-12-19T22:49:23.175Z,57.88
2022-12-19T22:51:50.260Z,59.02
2022-12-19T22:54:16.878Z,58.31
2022-12-19T22:56:52.575Z,57.65
2022-12-19T22:59:22.518Z,58.70
2022-12-19T23:01:49.973Z,59.47
2022-12-19T23:04:17.736Z,60.61
2022-12-19T23:06:47.520Z,61.19
2022-12-19T23:09:27.839Z,60.58
2022-12-19T23:11:55.100Z,57.51
2022-12-19T23:14:25.059Z,57.58
2022-12-19T23:16:58.063Z,58.50
2022-12-19T23:19:25.114Z,58.82
2022-12-19T23:21:51.711Z,59.49
2022-12-19T23:24:21.117Z,59.94
2022-12-19T23:26:51.499Z,60.35
2022-12-19T23:29:18.480Z,59.38
2022-12-19T23:31:46.502Z,59.75
2022-12-19T23:34:15.768Z,59.62
2022-12-19T23:39:45.939Z,59.11
2022-12-19T23:42:15.243Z,59.89
2022-12-19T23:44:42.203Z,59.96
2022-12-19T23:47:22.980Z,58.84
2022-12-19T23:49:49.825Z,59.50
2022-12-19T23:52:16.596Z,59.69
2022-12-19T23:54:43.596Z,60.57
2022-12-19T23:57:10.443Z,59.75
2022-12-19T23:59:37.220Z,58.79
